Flight Track Log - Related Links

Times and Time Zones

All times are in EDT time to prevent confusion due to time zone crossing. See the N352DS flight status page for this flight to view local times or setup timezone preferences in your user account.

Time Position Orientation Groundspeed Altitude Reporting Facility
EDT Latitude Longitude Course Direction KTS MPH feet Rate Location/Type
Tue 02:00:00 PM 40.5667 -75.6519 270° West  Level FlightAware Approximate
Tue 02:01:00 PM 40.5667 -75.6800 270° West  Level FlightAware Approximate
Tue 02:02:00 PM 40.5550 -75.7028 232° Southwest  Level FlightAware Approximate
Tue 02:03:00 PM 40.5418 -75.7248 232° Southwest  Level FlightAware Approximate
Tue 02:04:00 PM 40.5286 -75.7468 232° Southwest  Level FlightAware Approximate
Tue 02:05:00 PM 40.5150 -75.7684 217° Southwest  Level FlightAware Approximate
Tue 02:06:00 PM 40.4980 -75.7854 217° Southwest  Level FlightAware Approximate
Tue 02:07:00 PM 40.4804 -75.8000 180° South  Level FlightAware Approximate
Tue 02:08:00 PM 40.4619 -75.8079 232° Southwest  Level FlightAware Approximate
Tue 02:09:00 PM 40.4487 -75.8299 232° Southwest  Level FlightAware Approximate
Tue 02:10:00 PM 40.4355 -75.8519 232° Southwest  Level FlightAware Approximate
Tue 02:11:00 PM 40.4223 -75.8739 232° Southwest  Level FlightAware Approximate
Tue 02:12:00 PM 40.4167 -75.8994 270° West  Level FlightAware Approximate
Tue 02:13:00 PM 40.4001 -75.9166 217° Southwest  Level FlightAware Approximate
Tue 02:14:00 PM 40.3831 -75.9336 217° Southwest  Level FlightAware Approximate
Tue 02:15:00 PM 40.3667 -75.9500 217° Southwest  Level FlightAware Approximate
Tue 02:16:00 PM 40.3453 -75.9500 180° South  Level FlightAware Approximate
Tue 02:17:00 PM 40.3667 -75.9500 North  Level FlightAware Approximate
Tue 02:18:00 PM 40.3785 -75.9652 217° Southwest  Level Estimated
Tue 02:19:00 PM 40.3785 -75.9652 136° Southeast  Level Estimated
Tue 02:20:00 PM 40.3785 -75.9652 136° Southeast  Level Estimated
Tue 02:21:00 PM 40.3785 -75.9652 217° Southwest  Level Estimated
Tue 02:22:00 PM 40.3785 -75.9652 136° Southeast  Level Estimated
Tue 02:23:00 PM 40.3785 -75.9652 136° Southeast  Level Estimated
Tue 02:24:00 PM 40.3785 -75.9652 217° Southwest  Level Estimated
Tue 02:25:00 PM 40.3785 -75.9652 136° Southeast  Level Estimated
Tue 02:26:00 PM 40.3785 -75.9652 136° Southeast  Level Estimated
Tue 02:27:00 PM 40.3785 -75.9652 217° Southwest  Level Estimated
Tue 02:28:00 PM 40.3785 -75.9652 136° Southeast  Level Estimated
Tue 02:29:00 PM 40.3785 -75.9652 136° Southeast  Level Estimated
Tue 02:30:00 PM 40.3785 -75.9652 217° Southwest  Level Estimated
Tue 02:31:00 PM 40.3785 -75.9652 136° Southeast  Level Estimated

Login

Don't have an account? Register now (free) for customized features, flight alerts, and more!